sensor_id;sensor_type;location;lat;lon;timestamp;P1;durP1;ratioP1;P2;durP2;ratioP2
52618;SDS011;38513;53.234;6.568;2023-05-19T00:01:56;19.75;;;7.13;;
52618;SDS011;38513;53.234;6.568;2023-05-19T00:04:29;20.02;;;6.88;;
52618;SDS011;38513;53.234;6.568;2023-05-19T00:07:00;20.30;;;7.50;;
52618;SDS011;38513;53.234;6.568;2023-05-19T00:09:34;19.70;;;6.53;;
52618;SDS011;38513;53.234;6.568;2023-05-19T00:12:00;20.47;;;6.70;;
52618;SDS011;38513;53.234;6.568;2023-05-19T00:14:26;16.73;;;6.50;;
52618;SDS011;38513;53.234;6.568;2023-05-19T00:16:53;18.65;;;6.35;;
52618;SDS011;38513;53.234;6.568;2023-05-19T00:19:20;16.88;;;6.20;;
52618;SDS011;38513;53.234;6.568;2023-05-19T00:21:48;19.33;;;6.38;;
52618;SDS011;38513;53.234;6.568;2023-05-19T00:24:14;17.48;;;6.10;;
52618;SDS011;38513;53.234;6.568;2023-05-19T00:26:40;16.60;;;6.65;;
52618;SDS011;38513;53.234;6.568;2023-05-19T00:29:06;18.75;;;5.90;;
52618;SDS011;38513;53.234;6.568;2023-05-19T00:31:33;19.02;;;5.78;;
52618;SDS011;38513;53.234;6.568;2023-05-19T00:33:59;18.83;;;6.00;;
52618;SDS011;38513;53.234;6.568;2023-05-19T00:36:25;17.77;;;5.78;;
52618;SDS011;38513;53.234;6.568;2023-05-19T00:38:51;18.20;;;6.03;;
52618;SDS011;38513;53.234;6.568;2023-05-19T00:41:17;16.85;;;5.40;;
52618;SDS011;38513;53.234;6.568;2023-05-19T00:43:43;19.08;;;5.65;;
52618;SDS011;38513;53.234;6.568;2023-05-19T00:46:10;17.77;;;5.82;;
52618;SDS011;38513;53.234;6.568;2023-05-19T00:48:36;19.42;;;5.68;;
52618;SDS011;38513;53.234;6.568;2023-05-19T00:51:02;19.27;;;5.50;;
52618;SDS011;38513;53.234;6.568;2023-05-19T00:53:31;18.25;;;5.45;;
52618;SDS011;38513;53.234;6.568;2023-05-19T00:55:57;17.60;;;5.85;;
52618;SDS011;38513;53.234;6.568;2023-05-19T00:58:23;19.90;;;5.45;;
52618;SDS011;38513;53.234;6.568;2023-05-19T01:00:57;19.30;;;5.88;;
52618;SDS011;38513;53.234;6.568;2023-05-19T01:03:32;16.95;;;5.90;;
52618;SDS011;38513;53.234;6.568;2023-05-19T01:06:04;21.75;;;5.65;;
52618;SDS011;38513;53.234;6.568;2023-05-19T01:08:35;16.40;;;5.30;;
52618;SDS011;38513;53.234;6.568;2023-05-19T01:11:02;19.10;;;5.25;;
52618;SDS011;38513;53.234;6.568;2023-05-19T01:13:29;22.02;;;6.15;;
52618;SDS011;38513;53.234;6.568;2023-05-19T01:16:00;16.03;;;5.40;;
52618;SDS011;38513;53.234;6.568;2023-05-19T01:18:34;21.02;;;5.65;;
52618;SDS011;38513;53.234;6.568;2023-05-19T01:21:09;19.02;;;6.10;;
52618;SDS011;38513;53.234;6.568;2023-05-19T01:24:31;15.50;;;5.70;;
52618;SDS011;38513;53.234;6.568;2023-05-19T01:26:34;18.67;;;5.83;;
52618;SDS011;38513;53.234;6.568;2023-05-19T01:31:35;18.48;;;5.75;;
52618;SDS011;38513;53.234;6.568;2023-05-19T01:34:02;18.00;;;5.70;;
52618;SDS011;38513;53.234;6.568;2023-05-19T01:36:31;18.58;;;5.72;;
52618;SDS011;38513;53.234;6.568;2023-05-19T01:39:01;19.73;;;5.95;;
52618;SDS011;38513;53.234;6.568;2023-05-19T01:41:28;17.92;;;5.85;;
52618;SDS011;38513;53.234;6.568;2023-05-19T01:43:56;17.10;;;5.70;;
52618;SDS011;38513;53.234;6.568;2023-05-19T01:46:23;17.95;;;5.93;;
52618;SDS011;38513;53.234;6.568;2023-05-19T01:48:49;18.13;;;6.32;;
52618;SDS011;38513;53.234;6.568;2023-05-19T01:51:16;18.08;;;5.65;;
52618;SDS011;38513;53.234;6.568;2023-05-19T01:53:42;18.48;;;5.53;;
52618;SDS011;38513;53.234;6.568;2023-05-19T01:56:09;22.55;;;6.20;;
52618;SDS011;38513;53.234;6.568;2023-05-19T01:58:46;17.95;;;5.13;;
52618;SDS011;38513;53.234;6.568;2023-05-19T02:04:04;19.73;;;5.60;;
52618;SDS011;38513;53.234;6.568;2023-05-19T02:06:45;18.38;;;5.38;;
52618;SDS011;38513;53.234;6.568;2023-05-19T02:09:15;17.58;;;5.15;;
52618;SDS011;38513;53.234;6.568;2023-05-19T02:11:45;23.67;;;6.25;;
52618;SDS011;38513;53.234;6.568;2023-05-19T02:16:38;18.65;;;5.85;;
52618;SDS011;38513;53.234;6.568;2023-05-19T02:19:18;19.10;;;5.53;;
52618;SDS011;38513;53.234;6.568;2023-05-19T02:21:44;20.30;;;5.80;;
52618;SDS011;38513;53.234;6.568;2023-05-19T02:24:10;19.55;;;5.82;;
52618;SDS011;38513;53.234;6.568;2023-05-19T02:26:36;18.13;;;5.30;;
52618;SDS011;38513;53.234;6.568;2023-05-19T02:29:02;21.00;;;5.83;;
52618;SDS011;38513;53.234;6.568;2023-05-19T02:31:31;17.23;;;5.40;;
52618;SDS011;38513;53.234;6.568;2023-05-19T02:33:57;20.17;;;6.30;;
52618;SDS011;38513;53.234;6.568;2023-05-19T02:36:23;24.38;;;6.20;;
52618;SDS011;38513;53.234;6.568;2023-05-19T02:38:50;22.02;;;5.70;;
52618;SDS011;38513;53.234;6.568;2023-05-19T02:41:16;20.23;;;5.87;;
52618;SDS011;38513;53.234;6.568;2023-05-19T02:43:42;19.60;;;5.63;;
52618;SDS011;38513;53.234;6.568;2023-05-19T02:46:09;18.10;;;6.13;;
52618;SDS011;38513;53.234;6.568;2023-05-19T02:48:35;20.15;;;6.40;;
52618;SDS011;38513;53.234;6.568;2023-05-19T02:51:01;22.50;;;6.60;;
52618;SDS011;38513;53.234;6.568;2023-05-19T02:53:28;15.60;;;5.83;;
52618;SDS011;38513;53.234;6.568;2023-05-19T02:55:55;21.35;;;6.07;;
52618;SDS011;38513;53.234;6.568;2023-05-19T02:58:21;21.48;;;7.05;;
52618;SDS011;38513;53.234;6.568;2023-05-19T03:00:47;19.27;;;6.10;;
52618;SDS011;38513;53.234;6.568;2023-05-19T03:03:13;18.83;;;5.90;;
52618;SDS011;38513;53.234;6.568;2023-05-19T03:05:40;22.02;;;6.40;;
52618;SDS011;38513;53.234;6.568;2023-05-19T03:08:06;21.75;;;6.80;;
52618;SDS011;38513;53.234;6.568;2023-05-19T03:10:32;21.60;;;6.35;;
52618;SDS011;38513;53.234;6.568;2023-05-19T03:12:58;20.92;;;6.90;;
52618;SDS011;38513;53.234;6.568;2023-05-19T03:15:24;23.40;;;6.90;;
52618;SDS011;38513;53.234;6.568;2023-05-19T03:17:50;18.02;;;6.72;;
52618;SDS011;38513;53.234;6.568;2023-05-19T03:20:16;20.67;;;7.05;;
52618;SDS011;38513;53.234;6.568;2023-05-19T03:22:42;20.85;;;7.35;;
52618;SDS011;38513;53.234;6.568;2023-05-19T03:25:09;25.67;;;7.78;;
52618;SDS011;38513;53.234;6.568;2023-05-19T03:27:35;21.95;;;7.57;;
52618;SDS011;38513;53.234;6.568;2023-05-19T03:30:01;23.00;;;7.70;;
52618;SDS011;38513;53.234;6.568;2023-05-19T03:32:27;24.05;;;7.90;;
52618;SDS011;38513;53.234;6.568;2023-05-19T03:34:53;25.20;;;8.27;;
52618;SDS011;38513;53.234;6.568;2023-05-19T03:37:20;20.13;;;8.00;;
52618;SDS011;38513;53.234;6.568;2023-05-19T03:39:46;23.08;;;8.13;;
52618;SDS011;38513;53.234;6.568;2023-05-19T03:42:12;24.27;;;8.48;;
52618;SDS011;38513;53.234;6.568;2023-05-19T03:44:38;22.85;;;8.10;;
52618;SDS011;38513;53.234;6.568;2023-05-19T03:47:04;22.10;;;7.90;;
52618;SDS011;38513;53.234;6.568;2023-05-19T03:49:33;23.77;;;8.40;;
52618;SDS011;38513;53.234;6.568;2023-05-19T03:51:59;25.48;;;8.88;;
52618;SDS011;38513;53.234;6.568;2023-05-19T03:54:27;23.50;;;8.05;;
52618;SDS011;38513;53.234;6.568;2023-05-19T03:56:53;25.08;;;8.60;;
52618;SDS011;38513;53.234;6.568;2023-05-19T03:59:19;23.67;;;8.20;;
52618;SDS011;38513;53.234;6.568;2023-05-19T04:01:47;24.85;;;9.07;;
52618;SDS011;38513;53.234;6.568;2023-05-19T04:04:13;26.40;;;9.60;;
52618;SDS011;38513;53.234;6.568;2023-05-19T04:06:43;20.02;;;8.00;;
52618;SDS011;38513;53.234;6.568;2023-05-19T04:09:10;21.70;;;8.32;;
52618;SDS011;38513;53.234;6.568;2023-05-19T04:11:37;22.48;;;9.05;;
52618;SDS011;38513;53.234;6.568;2023-05-19T04:14:04;22.92;;;8.63;;
52618;SDS011;38513;53.234;6.568;2023-05-19T04:16:33;25.80;;;8.25;;
52618;SDS011;38513;53.234;6.568;2023-05-19T04:19:00;22.25;;;8.32;;
52618;SDS011;38513;53.234;6.568;2023-05-19T04:21:29;20.17;;;7.53;;
52618;SDS011;38513;53.234;6.568;2023-05-19T04:23:55;21.88;;;8.13;;
52618;SDS011;38513;53.234;6.568;2023-05-19T04:26:24;23.70;;;8.93;;
52618;SDS011;38513;53.234;6.568;2023-05-19T04:28:50;25.85;;;8.88;;
52618;SDS011;38513;53.234;6.568;2023-05-19T04:31:17;23.63;;;8.27;;
52618;SDS011;38513;53.234;6.568;2023-05-19T04:33:45;18.55;;;7.93;;
52618;SDS011;38513;53.234;6.568;2023-05-19T04:36:12;26.63;;;9.02;;
52618;SDS011;38513;53.234;6.568;2023-05-19T04:38:38;22.02;;;8.38;;
52618;SDS011;38513;53.234;6.568;2023-05-19T04:41:06;21.50;;;8.80;;
52618;SDS011;38513;53.234;6.568;2023-05-19T04:43:38;24.83;;;8.90;;
52618;SDS011;38513;53.234;6.568;2023-05-19T04:46:06;23.00;;;8.38;;
52618;SDS011;38513;53.234;6.568;2023-05-19T04:48:34;25.23;;;9.23;;
52618;SDS011;38513;53.234;6.568;2023-05-19T04:51:01;21.88;;;9.13;;
52618;SDS011;38513;53.234;6.568;2023-05-19T04:53:27;25.15;;;8.90;;
52618;SDS011;38513;53.234;6.568;2023-05-19T04:55:53;22.10;;;9.27;;
52618;SDS011;38513;53.234;6.568;2023-05-19T04:58:20;27.05;;;9.75;;
52618;SDS011;38513;53.234;6.568;2023-05-19T05:00:49;26.08;;;9.70;;
52618;SDS011;38513;53.234;6.568;2023-05-19T05:03:16;21.85;;;9.68;;
52618;SDS011;38513;53.234;6.568;2023-05-19T05:05:42;25.27;;;9.00;;
52618;SDS011;38513;53.234;6.568;2023-05-19T05:08:11;23.42;;;10.20;;
52618;SDS011;38513;53.234;6.568;2023-05-19T05:10:39;27.50;;;9.63;;
52618;SDS011;38513;53.234;6.568;2023-05-19T05:13:08;24.70;;;9.77;;
52618;SDS011;38513;53.234;6.568;2023-05-19T05:15:34;24.02;;;9.95;;
52618;SDS011;38513;53.234;6.568;2023-05-19T05:18:01;24.80;;;9.63;;
52618;SDS011;38513;53.234;6.568;2023-05-19T05:20:31;22.20;;;9.70;;
52618;SDS011;38513;53.234;6.568;2023-05-19T05:22:57;22.98;;;9.95;;
52618;SDS011;38513;53.234;6.568;2023-05-19T05:25:24;26.75;;;10.48;;
52618;SDS011;38513;53.234;6.568;2023-05-19T05:27:50;21.13;;;9.18;;
52618;SDS011;38513;53.234;6.568;2023-05-19T05:30:16;20.42;;;9.50;;
52618;SDS011;38513;53.234;6.568;2023-05-19T05:32:42;19.60;;;8.48;;
52618;SDS011;38513;53.234;6.568;2023-05-19T05:35:08;22.17;;;9.85;;
52618;SDS011;38513;53.234;6.568;2023-05-19T05:37:38;20.85;;;9.50;;
52618;SDS011;38513;53.234;6.568;2023-05-19T05:40:04;22.00;;;9.23;;
52618;SDS011;38513;53.234;6.568;2023-05-19T05:42:39;20.20;;;9.45;;
52618;SDS011;38513;53.234;6.568;2023-05-19T05:45:08;18.58;;;8.80;;
52618;SDS011;38513;53.234;6.568;2023-05-19T05:47:35;22.67;;;9.45;;
52618;SDS011;38513;53.234;6.568;2023-05-19T05:50:07;19.17;;;8.60;;
52618;SDS011;38513;53.234;6.568;2023-05-19T05:52:35;20.30;;;9.07;;
52618;SDS011;38513;53.234;6.568;2023-05-19T05:55:02;18.60;;;8.82;;
52618;SDS011;38513;53.234;6.568;2023-05-19T05:57:28;19.33;;;8.23;;
52618;SDS011;38513;53.234;6.568;2023-05-19T05:59:59;17.83;;;8.38;;
52618;SDS011;38513;53.234;6.568;2023-05-19T06:02:25;18.02;;;8.38;;
52618;SDS011;38513;53.234;6.568;2023-05-19T06:04:52;17.02;;;8.20;;
52618;SDS011;38513;53.234;6.568;2023-05-19T06:07:18;15.60;;;7.03;;
52618;SDS011;38513;53.234;6.568;2023-05-19T06:09:45;16.77;;;7.97;;
52618;SDS011;38513;53.234;6.568;2023-05-19T06:12:11;18.70;;;7.95;;
52618;SDS011;38513;53.234;6.568;2023-05-19T06:14:37;20.23;;;8.18;;
52618;SDS011;38513;53.234;6.568;2023-05-19T06:17:03;16.80;;;7.70;;
52618;SDS011;38513;53.234;6.568;2023-05-19T06:19:30;17.48;;;8.02;;
52618;SDS011;38513;53.234;6.568;2023-05-19T06:21:56;14.52;;;7.68;;
52618;SDS011;38513;53.234;6.568;2023-05-19T06:24:22;18.67;;;8.43;;
52618;SDS011;38513;53.234;6.568;2023-05-19T06:26:49;15.05;;;7.63;;
52618;SDS011;38513;53.234;6.568;2023-05-19T06:29:18;16.92;;;7.95;;
52618;SDS011;38513;53.234;6.568;2023-05-19T06:31:44;17.15;;;8.20;;
52618;SDS011;38513;53.234;6.568;2023-05-19T06:34:10;16.65;;;7.32;;
52618;SDS011;38513;53.234;6.568;2023-05-19T06:36:40;18.15;;;7.20;;
52618;SDS011;38513;53.234;6.568;2023-05-19T06:39:07;17.77;;;7.35;;
52618;SDS011;38513;53.234;6.568;2023-05-19T06:41:33;15.73;;;6.25;;
52618;SDS011;38513;53.234;6.568;2023-05-19T06:43:59;15.20;;;6.47;;
52618;SDS011;38513;53.234;6.568;2023-05-19T06:46:25;15.50;;;6.00;;
52618;SDS011;38513;53.234;6.568;2023-05-19T06:48:51;15.30;;;6.18;;
52618;SDS011;38513;53.234;6.568;2023-05-19T06:51:17;14.25;;;5.82;;
52618;SDS011;38513;53.234;6.568;2023-05-19T06:53:46;14.65;;;5.80;;
52618;SDS011;38513;53.234;6.568;2023-05-19T06:56:12;14.13;;;5.40;;
52618;SDS011;38513;53.234;6.568;2023-05-19T06:58:43;13.55;;;4.90;;
52618;SDS011;38513;53.234;6.568;2023-05-19T07:01:09;15.43;;;4.43;;
52618;SDS011;38513;53.234;6.568;2023-05-19T07:03:36;11.15;;;4.07;;
52618;SDS011;38513;53.234;6.568;2023-05-19T07:06:02;12.18;;;4.07;;
52618;SDS011;38513;53.234;6.568;2023-05-19T07:08:28;12.43;;;3.85;;
52618;SDS011;38513;53.234;6.568;2023-05-19T07:10:58;11.03;;;4.37;;
52618;SDS011;38513;53.234;6.568;2023-05-19T07:13:24;10.27;;;3.92;;
52618;SDS011;38513;53.234;6.568;2023-05-19T07:15:50;10.85;;;3.78;;
52618;SDS011;38513;53.234;6.568;2023-05-19T07:18:19;10.38;;;3.63;;
52618;SDS011;38513;53.234;6.568;2023-05-19T07:20:46;11.30;;;3.70;;
52618;SDS011;38513;53.234;6.568;2023-05-19T07:23:12;8.85;;;3.30;;
52618;SDS011;38513;53.234;6.568;2023-05-19T07:25:38;9.77;;;3.40;;
52618;SDS011;38513;53.234;6.568;2023-05-19T07:28:04;10.63;;;3.55;;
52618;SDS011;38513;53.234;6.568;2023-05-19T07:30:33;10.90;;;3.42;;
52618;SDS011;38513;53.234;6.568;2023-05-19T07:33:00;10.25;;;3.38;;
52618;SDS011;38513;53.234;6.568;2023-05-19T07:35:26;12.98;;;3.75;;
52618;SDS011;38513;53.234;6.568;2023-05-19T07:37:52;10.45;;;3.38;;
52618;SDS011;38513;53.234;6.568;2023-05-19T07:40:18;9.00;;;2.83;;
52618;SDS011;38513;53.234;6.568;2023-05-19T07:42:45;9.07;;;3.05;;
52618;SDS011;38513;53.234;6.568;2023-05-19T07:45:11;12.77;;;3.42;;
52618;SDS011;38513;53.234;6.568;2023-05-19T07:47:37;9.80;;;3.35;;
52618;SDS011;38513;53.234;6.568;2023-05-19T07:50:04;9.70;;;3.30;;
52618;SDS011;38513;53.234;6.568;2023-05-19T07:52:31;10.27;;;3.03;;
52618;SDS011;38513;53.234;6.568;2023-05-19T07:54:58;9.05;;;3.03;;
52618;SDS011;38513;53.234;6.568;2023-05-19T07:57:24;8.77;;;2.80;;
52618;SDS011;38513;53.234;6.568;2023-05-19T07:59:50;9.95;;;3.28;;
52618;SDS011;38513;53.234;6.568;2023-05-19T08:02:17;8.67;;;2.80;;
52618;SDS011;38513;53.234;6.568;2023-05-19T08:04:43;7.40;;;2.85;;
52618;SDS011;38513;53.234;6.568;2023-05-19T08:07:09;9.32;;;2.75;;
52618;SDS011;38513;53.234;6.568;2023-05-19T08:09:36;9.93;;;2.87;;
52618;SDS011;38513;53.234;6.568;2023-05-19T08:12:02;9.18;;;2.92;;
52618;SDS011;38513;53.234;6.568;2023-05-19T08:14:29;9.05;;;2.72;;
52618;SDS011;38513;53.234;6.568;2023-05-19T08:16:57;9.45;;;2.92;;
52618;SDS011;38513;53.234;6.568;2023-05-19T08:19:23;9.50;;;2.80;;
52618;SDS011;38513;53.234;6.568;2023-05-19T08:21:50;9.23;;;2.88;;
52618;SDS011;38513;53.234;6.568;2023-05-19T08:24:17;10.52;;;3.50;;
52618;SDS011;38513;53.234;6.568;2023-05-19T08:26:43;8.55;;;3.00;;
52618;SDS011;38513;53.234;6.568;2023-05-19T08:29:09;9.55;;;3.20;;
52618;SDS011;38513;53.234;6.568;2023-05-19T08:31:36;9.05;;;3.10;;
52618;SDS011;38513;53.234;6.568;2023-05-19T08:34:02;9.83;;;3.10;;
52618;SDS011;38513;53.234;6.568;2023-05-19T08:36:28;9.35;;;3.10;;
52618;SDS011;38513;53.234;6.568;2023-05-19T08:38:54;10.40;;;3.40;;
52618;SDS011;38513;53.234;6.568;2023-05-19T08:41:20;8.32;;;3.28;;
52618;SDS011;38513;53.234;6.568;2023-05-19T08:43:47;9.85;;;3.30;;
52618;SDS011;38513;53.234;6.568;2023-05-19T08:46:14;9.77;;;3.30;;
52618;SDS011;38513;53.234;6.568;2023-05-19T08:48:41;8.80;;;3.47;;
52618;SDS011;38513;53.234;6.568;2023-05-19T08:51:12;8.13;;;3.42;;
52618;SDS011;38513;53.234;6.568;2023-05-19T08:53:39;9.23;;;3.42;;
52618;SDS011;38513;53.234;6.568;2023-05-19T08:56:13;8.65;;;3.03;;
52618;SDS011;38513;53.234;6.568;2023-05-19T08:58:40;8.50;;;3.08;;
52618;SDS011;38513;53.234;6.568;2023-05-19T09:01:18;8.90;;;3.10;;
52618;SDS011;38513;53.234;6.568;2023-05-19T09:03:44;9.23;;;3.20;;
52618;SDS011;38513;53.234;6.568;2023-05-19T09:06:11;11.40;;;3.33;;
52618;SDS011;38513;53.234;6.568;2023-05-19T09:08:38;9.93;;;3.10;;
52618;SDS011;38513;53.234;6.568;2023-05-19T09:11:04;9.82;;;3.47;;
52618;SDS011;38513;53.234;6.568;2023-05-19T09:13:30;9.40;;;3.00;;
52618;SDS011;38513;53.234;6.568;2023-05-19T09:15:56;10.40;;;3.47;;
52618;SDS011;38513;53.234;6.568;2023-05-19T09:18:23;9.75;;;3.22;;
52618;SDS011;38513;53.234;6.568;2023-05-19T09:21:00;8.75;;;3.25;;
52618;SDS011;38513;53.234;6.568;2023-05-19T09:23:27;10.50;;;3.10;;
52618;SDS011;38513;53.234;6.568;2023-05-19T09:25:54;9.25;;;3.30;;
52618;SDS011;38513;53.234;6.568;2023-05-19T09:28:27;8.95;;;3.38;;
52618;SDS011;38513;53.234;6.568;2023-05-19T09:30:57;8.88;;;3.28;;
52618;SDS011;38513;53.234;6.568;2023-05-19T09:33:25;9.07;;;3.28;;
52618;SDS011;38513;53.234;6.568;2023-05-19T09:35:52;6.78;;;2.65;;
52618;SDS011;38513;53.234;6.568;2023-05-19T09:38:20;9.20;;;2.90;;
52618;SDS011;38513;53.234;6.568;2023-05-19T09:40:47;8.68;;;3.20;;
52618;SDS011;38513;53.234;6.568;2023-05-19T09:43:14;8.15;;;2.75;;
52618;SDS011;38513;53.234;6.568;2023-05-19T09:45:40;8.13;;;3.08;;
52618;SDS011;38513;53.234;6.568;2023-05-19T09:48:07;7.63;;;2.85;;
52618;SDS011;38513;53.234;6.568;2023-05-19T09:50:33;9.25;;;3.30;;
52618;SDS011;38513;53.234;6.568;2023-05-19T09:53:03;8.48;;;2.60;;
52618;SDS011;38513;53.234;6.568;2023-05-19T09:55:29;7.05;;;2.42;;
52618;SDS011;38513;53.234;6.568;2023-05-19T09:57:58;10.25;;;3.20;;
52618;SDS011;38513;53.234;6.568;2023-05-19T10:00:27;9.75;;;3.03;;
52618;SDS011;38513;53.234;6.568;2023-05-19T10:02:54;9.48;;;2.90;;
52618;SDS011;38513;53.234;6.568;2023-05-19T10:05:21;8.13;;;3.20;;
52618;SDS011;38513;53.234;6.568;2023-05-19T10:07:52;9.27;;;3.20;;
52618;SDS011;38513;53.234;6.568;2023-05-19T10:10:19;9.10;;;3.08;;
52618;SDS011;38513;53.234;6.568;2023-05-19T10:12:46;8.23;;;3.20;;
52618;SDS011;38513;53.234;6.568;2023-05-19T10:15:13;8.90;;;2.92;;
52618;SDS011;38513;53.234;6.568;2023-05-19T10:17:40;10.38;;;3.30;;
52618;SDS011;38513;53.234;6.568;2023-05-19T10:20:08;10.82;;;3.35;;
52618;SDS011;38513;53.234;6.568;2023-05-19T10:22:35;7.55;;;3.00;;
52618;SDS011;38513;53.234;6.568;2023-05-19T10:25:02;9.13;;;3.30;;
52618;SDS011;38513;53.234;6.568;2023-05-19T10:27:29;9.45;;;3.20;;
52618;SDS011;38513;53.234;6.568;2023-05-19T10:29:57;8.32;;;2.67;;
52618;SDS011;38513;53.234;6.568;2023-05-19T10:32:25;9.00;;;2.97;;
52618;SDS011;38513;53.234;6.568;2023-05-19T10:40:11;8.55;;;2.90;;
52618;SDS011;38513;53.234;6.568;2023-05-19T10:43:32;9.52;;;3.03;;
52618;SDS011;38513;53.234;6.568;2023-05-19T10:45:39;7.30;;;2.90;;
52618;SDS011;38513;53.234;6.568;2023-05-19T10:48:11;8.95;;;3.05;;
52618;SDS011;38513;53.234;6.568;2023-05-19T10:50:38;9.05;;;2.90;;
52618;SDS011;38513;53.234;6.568;2023-05-19T10:53:06;9.18;;;2.78;;
52618;SDS011;38513;53.234;6.568;2023-05-19T10:55:45;8.30;;;2.92;;
52618;SDS011;38513;53.234;6.568;2023-05-19T10:58:12;7.73;;;2.83;;
52618;SDS011;38513;53.234;6.568;2023-05-19T11:00:38;9.80;;;3.15;;
52618;SDS011;38513;53.234;6.568;2023-05-19T11:03:15;9.98;;;3.15;;
52618;SDS011;38513;53.234;6.568;2023-05-19T11:05:47;9.38;;;3.00;;
52618;SDS011;38513;53.234;6.568;2023-05-19T11:08:17;9.38;;;2.72;;
52618;SDS011;38513;53.234;6.568;2023-05-19T11:10:56;7.28;;;2.45;;
52618;SDS011;38513;53.234;6.568;2023-05-19T11:13:36;8.23;;;3.20;;
52618;SDS011;38513;53.234;6.568;2023-05-19T11:16:08;9.73;;;3.30;;
52618;SDS011;38513;53.234;6.568;2023-05-19T11:18:34;10.18;;;3.03;;
52618;SDS011;38513;53.234;6.568;2023-05-19T11:21:04;9.25;;;3.03;;
52618;SDS011;38513;53.234;6.568;2023-05-19T11:23:33;9.65;;;3.28;;
52618;SDS011;38513;53.234;6.568;2023-05-19T11:26:05;7.43;;;2.83;;
52618;SDS011;38513;53.234;6.568;2023-05-19T11:28:32;7.72;;;2.80;;
52618;SDS011;38513;53.234;6.568;2023-05-19T11:30:58;8.23;;;3.30;;
52618;SDS011;38513;53.234;6.568;2023-05-19T11:33:26;9.65;;;2.83;;
52618;SDS011;38513;53.234;6.568;2023-05-19T11:35:53;9.17;;;3.13;;
52618;SDS011;38513;53.234;6.568;2023-05-19T11:38:21;8.85;;;2.88;;
52618;SDS011;38513;53.234;6.568;2023-05-19T11:40:48;9.07;;;2.78;;
52618;SDS011;38513;53.234;6.568;2023-05-19T11:43:17;8.17;;;2.90;;
52618;SDS011;38513;53.234;6.568;2023-05-19T11:45:43;9.20;;;3.05;;
52618;SDS011;38513;53.234;6.568;2023-05-19T11:48:10;7.10;;;2.73;;
52618;SDS011;38513;53.234;6.568;2023-05-19T11:50:37;10.10;;;3.30;;
52618;SDS011;38513;53.234;6.568;2023-05-19T11:53:05;9.23;;;2.88;;
52618;SDS011;38513;53.234;6.568;2023-05-19T11:55:31;8.77;;;2.70;;
52618;SDS011;38513;53.234;6.568;2023-05-19T11:58:01;9.82;;;2.78;;
52618;SDS011;38513;53.234;6.568;2023-05-19T12:00:28;9.35;;;3.00;;
52618;SDS011;38513;53.234;6.568;2023-05-19T12:02:55;6.97;;;2.80;;
52618;SDS011;38513;53.234;6.568;2023-05-19T12:05:22;9.07;;;2.80;;
52618;SDS011;38513;53.234;6.568;2023-05-19T12:07:49;8.15;;;2.58;;
52618;SDS011;38513;53.234;6.568;2023-05-19T12:12:52;6.93;;;2.83;;
52618;SDS011;38513;53.234;6.568;2023-05-19T12:15:19;8.57;;;2.70;;
52618;SDS011;38513;53.234;6.568;2023-05-19T12:18:03;8.10;;;2.70;;
52618;SDS011;38513;53.234;6.568;2023-05-19T12:20:33;8.20;;;2.80;;
52618;SDS011;38513;53.234;6.568;2023-05-19T12:23:00;9.30;;;2.90;;
52618;SDS011;38513;53.234;6.568;2023-05-19T12:25:27;9.18;;;2.78;;
52618;SDS011;38513;53.234;6.568;2023-05-19T12:27:57;7.15;;;2.50;;
52618;SDS011;38513;53.234;6.568;2023-05-19T12:30:27;7.97;;;2.80;;
52618;SDS011;38513;53.234;6.568;2023-05-19T12:32:56;9.45;;;2.63;;
52618;SDS011;38513;53.234;6.568;2023-05-19T12:35:29;8.35;;;2.63;;
52618;SDS011;38513;53.234;6.568;2023-05-19T12:38:06;9.57;;;2.53;;
52618;SDS011;38513;53.234;6.568;2023-05-19T12:40:33;9.47;;;2.70;;
52618;SDS011;38513;53.234;6.568;2023-05-19T12:42:59;8.85;;;2.60;;
52618;SDS011;38513;53.234;6.568;2023-05-19T12:45:25;8.20;;;2.70;;
52618;SDS011;38513;53.234;6.568;2023-05-19T12:47:52;9.07;;;2.67;;
52618;SDS011;38513;53.234;6.568;2023-05-19T12:50:18;11.35;;;3.22;;
52618;SDS011;38513;53.234;6.568;2023-05-19T12:52:46;8.85;;;2.70;;
52618;SDS011;38513;53.234;6.568;2023-05-19T12:55:17;8.88;;;2.92;;
52618;SDS011;38513;53.234;6.568;2023-05-19T12:57:49;8.60;;;2.97;;
52618;SDS011;38513;53.234;6.568;2023-05-19T13:00:19;8.20;;;2.90;;
52618;SDS011;38513;53.234;6.568;2023-05-19T13:05:21;8.07;;;2.70;;
52618;SDS011;38513;53.234;6.568;2023-05-19T13:07:57;9.40;;;3.05;;
52618;SDS011;38513;53.234;6.568;2023-05-19T13:10:24;10.48;;;2.72;;
52618;SDS011;38513;53.234;6.568;2023-05-19T13:12:57;10.48;;;2.90;;
52618;SDS011;38513;53.234;6.568;2023-05-19T13:15:24;10.18;;;3.20;;
52618;SDS011;38513;53.234;6.568;2023-05-19T13:17:51;7.38;;;2.40;;
52618;SDS011;38513;53.234;6.568;2023-05-19T13:20:18;9.23;;;3.40;;
52618;SDS011;38513;53.234;6.568;2023-05-19T13:22:45;8.65;;;2.90;;
52618;SDS011;38513;53.234;6.568;2023-05-19T13:25:11;9.25;;;2.95;;
52618;SDS011;38513;53.234;6.568;2023-05-19T13:27:37;8.20;;;2.90;;
52618;SDS011;38513;53.234;6.568;2023-05-19T13:30:04;9.88;;;3.05;;
52618;SDS011;38513;53.234;6.568;2023-05-19T13:32:30;9.65;;;2.60;;
52618;SDS011;38513;53.234;6.568;2023-05-19T13:34:56;8.90;;;3.17;;
52618;SDS011;38513;53.234;6.568;2023-05-19T13:37:23;9.77;;;3.08;;
52618;SDS011;38513;53.234;6.568;2023-05-19T13:39:49;10.50;;;3.72;;
52618;SDS011;38513;53.234;6.568;2023-05-19T13:42:18;10.88;;;3.72;;
52618;SDS011;38513;53.234;6.568;2023-05-19T13:44:45;11.80;;;4.18;;
52618;SDS011;38513;53.234;6.568;2023-05-19T13:47:11;9.90;;;4.38;;
52618;SDS011;38513;53.234;6.568;2023-05-19T13:49:37;10.45;;;4.38;;
52618;SDS011;38513;53.234;6.568;2023-05-19T13:52:05;11.93;;;4.45;;
52618;SDS011;38513;53.234;6.568;2023-05-19T13:54:32;11.40;;;4.15;;
52618;SDS011;38513;53.234;6.568;2023-05-19T13:56:58;12.38;;;4.57;;
52618;SDS011;38513;53.234;6.568;2023-05-19T13:59:24;14.13;;;4.88;;
52618;SDS011;38513;53.234;6.568;2023-05-19T14:01:50;14.43;;;4.45;;
52618;SDS011;38513;53.234;6.568;2023-05-19T14:04:17;14.30;;;5.38;;
52618;SDS011;38513;53.234;6.568;2023-05-19T14:06:47;14.13;;;4.93;;
52618;SDS011;38513;53.234;6.568;2023-05-19T14:09:14;12.63;;;4.63;;
52618;SDS011;38513;53.234;6.568;2023-05-19T14:11:41;13.65;;;4.68;;
52618;SDS011;38513;53.234;6.568;2023-05-19T14:14:07;15.73;;;4.78;;
52618;SDS011;38513;53.234;6.568;2023-05-19T14:16:34;14.40;;;4.88;;
52618;SDS011;38513;53.234;6.568;2023-05-19T14:19:01;16.52;;;4.88;;
52618;SDS011;38513;53.234;6.568;2023-05-19T14:21:27;13.43;;;4.38;;
52618;SDS011;38513;53.234;6.568;2023-05-19T14:23:54;15.30;;;4.75;;
52618;SDS011;38513;53.234;6.568;2023-05-19T14:26:20;15.40;;;4.80;;
52618;SDS011;38513;53.234;6.568;2023-05-19T14:28:47;13.55;;;4.70;;
52618;SDS011;38513;53.234;6.568;2023-05-19T14:31:19;11.65;;;4.55;;
52618;SDS011;38513;53.234;6.568;2023-05-19T14:33:49;12.82;;;4.47;;
52618;SDS011;38513;53.234;6.568;2023-05-19T14:36:15;13.47;;;4.17;;
52618;SDS011;38513;53.234;6.568;2023-05-19T14:38:42;11.63;;;4.70;;
52618;SDS011;38513;53.234;6.568;2023-05-19T14:41:08;13.35;;;4.10;;
52618;SDS011;38513;53.234;6.568;2023-05-19T14:43:38;14.43;;;4.65;;
52618;SDS011;38513;53.234;6.568;2023-05-19T14:46:06;13.73;;;4.00;;
52618;SDS011;38513;53.234;6.568;2023-05-19T14:48:42;15.82;;;4.30;;
52618;SDS011;38513;53.234;6.568;2023-05-19T14:51:08;13.67;;;4.20;;
52618;SDS011;38513;53.234;6.568;2023-05-19T14:53:35;11.82;;;4.13;;
52618;SDS011;38513;53.234;6.568;2023-05-19T14:56:02;12.57;;;3.90;;
52618;SDS011;38513;53.234;6.568;2023-05-19T14:58:28;10.52;;;3.67;;
52618;SDS011;38513;53.234;6.568;2023-05-19T15:00:58;11.55;;;3.80;;